aviador You're here:

KMSP Decoded Metar

MINNEAPOLIS in MN, USA
Report Time2017-08-19 13:53:00
UTC Time2017-08-19 14:56:30
Flight Rules vfr VFR
Wind220° at 06 kt
W.Decomp.*RWY 22: 6.0 kt HW 0 kt LCW
RWY 17: 3.9 kt HW 4.6 kt RCW
RWY 30: 1.0 kt HW 5.9 kt LCW
W.Rank220° ranks 13
Current wind is below 220° avg. (7.1)
Visibility9999 m
Phenomena:N/A
Clouds:Few 003 Hf
Expected CloudBase > 800 ft AGL from Temp-Dew spread
CeilingNone
Temp17°C (ISA +4)
Dew Point15°C (88% RH)
AAT16.5°C
QNH1015 hPa
Density Alt1,470 ft
Elevation869 ft
Report Wrong Elevation
Raw Report
METAR KMSP 191353Z 22006KT 10SM FEW003 17/15 A2996 RMK AO2 SLP145 T01720150=

Extra information for KMSP:More info

Metar Taf Metar & Taf Last 4 Metars F.Rules Stats Wind Profile Meteogram Temp Stats Airport Information Weather charts Add Link Nearby VenuesMetar ALERT Operation Metar Decoded Social comments

AIRNAV info for KMSP